Time;durP1;ratioP1;P1;durP2;ratioP2;P2;SDS_P1;SDS_P2;PMS_P1;PMS_P2;Temp;Humidity;BMP_temperature;BMP_pressure;BME280_temperature;BME280_humidity;BME280_pressure;Samples;Min_cycle;Max_cycle;Signal;HPM_P1;HPM_P2
2021/06/22 00:00:53;;;;;;;18.90;13.17;;;;;;;18.54;86.94;100285.59;5113548;28;20178;-72
2021/06/22 00:03:19;;;;;;;18.33;13.83;;;;;;;18.49;86.74;100287.91;5113081;28;20220;-71
2021/06/22 00:05:44;;;;;;;17.80;13.93;;;;;;;18.33;87.60;100289.34;5113503;28;20173;-71
2021/06/22 00:08:10;;;;;;;21.43;15.50;;;;;;;18.41;87.23;100292.19;5095468;28;20177;-71
2021/06/22 00:10:35;;;;;;;26.43;17.97;;;;;;;18.30;87.85;100296.91;5112242;28;20606;-71
2021/06/22 00:13:00;;;;;;;24.77;17.77;;;;;;;18.30;87.72;100303.16;5129323;28;20201;-71
2021/06/22 00:15:27;;;;;;;22.60;17.87;;;;;;;18.23;88.04;100296.63;5111877;28;20190;-71
2021/06/22 00:17:53;;;;;;;25.67;18.07;;;;;;;18.01;89.28;100305.00;5111933;28;20178;-71
2021/06/22 00:20:19;;;;;;;27.00;19.23;;;;;;;17.78;90.80;100310.63;5095395;28;20518;-71
2021/06/22 00:22:45;;;;;;;28.93;20.50;;;;;;;17.85;91.07;100302.88;5111671;28;20193;-71
2021/06/22 00:25:13;;;;;;;28.20;19.20;;;;;;;17.83;90.49;100306.66;5094904;28;20690;-72
2021/06/22 00:27:38;;;;;;;35.13;21.63;;;;;;;17.78;91.09;100304.38;5112290;28;20322;-71
2021/06/22 00:30:05;;;;;;;28.83;22.63;;;;;;;17.71;91.92;100314.03;5111871;28;20264;-71
2021/06/22 00:32:31;;;;;;;33.03;21.77;;;;;;;17.78;91.49;100317.88;5111771;28;20211;-71
2021/06/22 00:34:56;;;;;;;30.80;21.03;;;;;;;17.91;91.46;100317.63;5128845;28;20197;-72
2021/06/22 00:37:21;;;;;;;32.17;21.50;;;;;;;17.98;90.92;100325.03;5113147;28;20315;-72
2021/06/22 00:39:46;;;;;;;31.50;21.73;;;;;;;17.76;91.13;100333.38;5115881;28;20256;-71
2021/06/22 00:42:12;;;;;;;34.37;23.40;;;;;;;17.63;92.61;100330.91;5116924;28;20193;-71
2021/06/22 00:44:53;;;;;;;34.97;22.77;;;;;;;17.69;92.89;100324.97;5114773;28;20194;-72
2021/06/22 00:47:19;;;;;;;31.13;23.60;;;;;;;17.88;92.39;100328.72;5111918;28;20173;-72
2021/06/22 00:49:45;;;;;;;37.63;23.30;;;;;;;17.78;92.50;100340.34;5128646;28;20661;-71
2021/06/22 00:52:10;;;;;;;34.07;22.63;;;;;;;17.69;93.16;100346.56;5095011;28;20170;-72
2021/06/22 00:54:36;;;;;;;30.80;21.33;;;;;;;17.63;92.53;100359.72;5114566;28;20194;-71
2021/06/22 00:57:09;;;;;;;30.37;20.57;;;;;;;17.58;92.83;100357.44;5098584;28;20181;-72
2021/06/22 00:59:35;;;;;;;27.83;21.07;;;;;;;17.49;92.90;100348.34;5117838;28;20173;-71
2021/06/22 01:02:04;;;;;;;22.10;18.47;;;;;;;17.54;91.50;100341.69;5120874;27;20577;-72
2021/06/22 01:04:30;;;;;;;24.70;18.43;;;;;;;17.55;91.15;100349.63;5120011;28;20200;-72
2021/06/22 01:06:56;;;;;;;30.53;18.23;;;;;;;17.51;90.80;100337.41;5116926;28;20165;-72
2021/06/22 01:09:21;;;;;;;20.40;14.93;;;;;;;17.56;89.72;100331.59;5122369;28;20174;-72
2021/06/22 01:11:47;;;;;;;17.70;9.43;;;;;;;17.23;87.78;100340.84;5125116;28;20240;-72
2021/06/22 01:14:12;;;;;;;14.37;6.43;;;;;;;17.15;86.84;100353.19;5117866;28;20197;-72
2021/06/22 01:16:37;;;;;;;12.33;5.70;;;;;;;17.06;86.69;100356.66;5119648;28;20283;-72
2021/06/22 01:19:05;;;;;;;12.50;5.33;;;;;;;17.09;86.08;100347.44;5119589;28;20174;-72
2021/06/22 01:21:33;;;;;;;6.37;4.13;;;;;;;16.79;86.91;100338.38;5122696;28;20172;-72
2021/06/22 01:24:13;;;;;;;7.53;4.27;;;;;;;16.62;88.18;100348.84;5103534;28;20257;-72
2021/06/22 01:27:00;;;;;;;11.97;5.00;;;;;;;16.62;87.94;100356.91;5123738;28;20218;-72
2021/06/22 01:29:27;;;;;;;11.23;6.20;;;;;;;16.65;88.00;100352.13;5122237;28;20192;-71
2021/06/22 01:31:53;;;;;;;16.83;6.23;;;;;;;16.57;88.85;100360.88;5124211;28;20648;-72
2021/06/22 01:34:22;;;;;;;14.23;6.20;;;;;;;16.65;88.64;100365.59;5119129;28;20673;-72
2021/06/22 01:36:48;;;;;;;13.00;6.90;;;;;;;16.71;88.52;100369.63;5102030;28;20177;-72
2021/06/22 01:39:14;;;;;;;12.70;7.00;;;;;;;16.64;88.83;100377.34;5101844;28;20199;-72
2021/06/22 01:41:39;;;;;;;13.17;7.50;;;;;;;16.58;89.50;100372.50;5117028;28;20201;-72
2021/06/22 01:44:05;;;;;;;12.77;8.40;;;;;;;16.56;89.59;100378.00;5114610;28;20224;-71
2021/06/22 01:46:31;;;;;;;13.87;8.40;;;;;;;16.61;89.42;100391.09;5114324;28;20181;-71
2021/06/22 01:48:56;;;;;;;14.83;8.97;;;;;;;16.55;89.86;100399.69;5114086;28;20174;-71
2021/06/22 01:51:21;;;;;;;13.83;8.63;;;;;;;16.54;89.94;100398.00;5114212;28;20180;-72
2021/06/22 01:54:00;;;;;;;14.37;8.63;;;;;;;16.55;89.64;100402.38;5113911;28;20202;-71
2021/06/22 01:56:29;;;;;;;11.87;8.40;;;;;;;16.60;89.38;100396.59;5115773;28;20174;-71
2021/06/22 01:58:55;;;;;;;16.63;8.30;;;;;;;16.68;89.28;100394.16;5113995;28;20169;-70
2021/06/22 02:01:20;;;;;;;15.23;8.03;;;;;;;16.57;89.19;100403.97;5113904;28;20174;-70
2021/06/22 02:03:46;;;;;;;14.27;8.83;;;;;;;16.63;89.14;100421.44;5113686;28;20197;-70
2021/06/22 02:06:11;;;;;;;11.80;7.50;;;;;;;16.75;88.96;100422.31;5096804;28;20205;-70
2021/06/22 02:08:37;;;;;;;14.97;8.17;;;;;;;16.80;88.05;100418.22;5114839;28;20205;-71
2021/06/22 02:11:02;;;;;;;13.63;7.43;;;;;;;16.84;87.81;100416.13;5114887;28;20184;-71
2021/06/22 02:13:29;;;;;;;10.47;8.23;;;;;;;16.75;88.64;100416.91;5096477;28;20204;-71
2021/06/22 02:15:55;;;;;;;15.87;7.53;;;;;;;16.87;88.07;100423.94;5113684;28;20217;-72
2021/06/22 02:18:20;;;;;;;18.03;7.60;;;;;;;16.93;86.91;100430.66;5114113;28;20219;-73
2021/06/22 02:20:46;;;;;;;10.40;6.67;;;;;;;16.69;88.31;100426.34;5113621;28;20177;-72
2021/06/22 02:23:11;;;;;;;13.13;7.07;;;;;;;16.82;86.96;100428.88;5113626;28;20330;-72
2021/06/22 02:25:37;;;;;;;11.80;7.00;;;;;;;16.85;87.36;100434.00;5113718;28;20182;-71
2021/06/22 02:28:05;;;;;;;10.97;7.07;;;;;;;16.78;87.68;100432.81;5113655;28;20638;-70
2021/06/22 02:30:31;;;;;;;11.13;6.50;;;;;;;16.77;87.45;100431.13;5113235;28;20185;-71
2021/06/22 02:32:57;;;;;;;11.70;6.27;;;;;;;16.71;87.09;100428.91;5113220;28;20204;-71
2021/06/22 02:35:22;;;;;;;14.50;6.30;;;;;;;16.85;86.51;100434.84;5113065;28;20220;-70
2021/06/22 02:37:51;;;;;;;10.00;6.03;;;;;;;16.79;86.91;100438.06;5114361;28;20176;-71
2021/06/22 02:40:16;;;;;;;15.00;5.97;;;;;;;16.81;87.44;100451.41;5114571;27;20182;-72
2021/06/22 02:42:42;;;;;;;9.40;5.83;;;;;;;16.83;87.80;100446.75;5114236;27;20205;-71
2021/06/22 02:45:07;;;;;;;12.33;6.57;;;;;;;16.83;86.80;100452.16;5114067;28;20173;-70
2021/06/22 02:47:32;;;;;;;12.50;6.80;;;;;;;16.82;87.08;100456.69;5095857;28;20184;-71
2021/06/22 02:49:58;;;;;;;8.00;5.60;;;;;;;16.80;86.72;100460.50;5114587;28;20185;-70
2021/06/22 02:52:23;;;;;;;8.30;5.77;;;;;;;16.85;87.22;100466.34;5114152;28;20646;-71
2021/06/22 02:54:48;;;;;;;10.57;5.73;;;;;;;16.85;86.43;100464.50;5114305;28;20193;-71
2021/06/22 02:57:14;;;;;;;12.47;6.10;;;;;;;16.80;86.58;100469.44;5114054;28;20172;-71
2021/06/22 02:59:39;;;;;;;10.93;5.70;;;;;;;16.80;85.84;100477.53;5114012;28;20234;-71
2021/06/22 03:02:05;;;;;;;15.43;6.10;;;;;;;16.76;85.84;100477.91;5113016;28;20238;-70
2021/06/22 03:04:31;;;;;;;14.67;6.50;;;;;;;16.83;85.19;100495.25;5112279;28;20203;-71
2021/06/22 03:06:56;;;;;;;18.47;5.53;;;;;;;16.95;84.59;100494.22;5113751;28;20188;-70
2021/06/22 03:09:22;;;;;;;10.13;5.97;;;;;;;16.67;85.11;100497.53;5112592;28;20184;-71
2021/06/22 03:11:48;;;;;;;16.57;6.67;;;;;;;16.66;86.01;100503.91;5113709;28;20177;-70
2021/06/22 03:14:14;;;;;;;12.47;5.67;;;;;;;16.65;85.82;100511.09;5113533;28;20204;-70
2021/06/22 03:16:39;;;;;;;15.07;6.07;;;;;;;16.69;86.32;100509.03;5113843;28;20181;-71
2021/06/22 03:19:04;;;;;;;11.83;6.20;;;;;;;16.82;84.90;100507.03;5112574;28;20177;-70
2021/06/22 03:21:30;;;;;;;14.67;5.77;;;;;;;16.66;84.90;100503.91;5111784;28;20201;-71
2021/06/22 03:23:55;;;;;;;13.80;5.77;;;;;;;16.58;84.51;100513.44;5113564;28;20692;-70
2021/06/22 03:26:20;;;;;;;16.27;5.47;;;;;;;16.48;84.88;100507.13;5112241;28;20204;-70
2021/06/22 03:28:46;;;;;;;12.53;6.27;;;;;;;16.33;85.00;100508.34;5113609;28;20173;-70
2021/06/22 03:31:11;;;;;;;17.53;6.43;;;;;;;16.42;84.80;100512.16;5112356;28;20177;-71
2021/06/22 03:33:36;;;;;;;15.93;6.47;;;;;;;16.53;84.50;100506.72;5112743;28;20200;-71
2021/06/22 03:36:02;;;;;;;17.67;5.90;;;;;;;16.25;85.67;100500.91;5112315;28;20531;-71
2021/06/22 03:38:28;;;;;;;12.30;5.70;;;;;;;16.40;84.97;100508.72;5112205;28;20179;-71
2021/06/22 03:40:53;;;;;;;16.83;6.97;;;;;;;16.36;86.04;100518.91;5113653;28;20174;-71
2021/06/22 03:43:21;;;;;;;16.67;6.47;;;;;;;16.34;85.92;100504.69;5112469;28;20569;-71
2021/06/22 03:45:47;;;;;;;16.23;6.23;;;;;;;16.39;85.46;100505.19;5112198;28;20515;-71
2021/06/22 03:48:12;;;;;;;17.40;7.07;;;;;;;16.43;85.26;100514.72;5112563;28;20215;-71
2021/06/22 03:50:38;;;;;;;14.67;6.43;;;;;;;16.36;85.43;100529.69;5111915;28;20181;-71
2021/06/22 03:53:03;;;;;;;18.00;6.70;;;;;;;16.43;85.35;100524.63;5094846;28;20197;-71
2021/06/22 03:55:29;;;;;;;16.57;6.53;;;;;;;16.30;85.63;100516.69;5113351;28;20200;-71
2021/06/22 03:57:56;;;;;;;12.40;5.93;;;;;;;16.27;86.15;100516.94;5111880;28;20174;-71
2021/06/22 04:00:22;;;;;;;15.37;6.90;;;;;;;16.20;86.54;100507.66;5094819;28;20260;-70
2021/06/22 04:05:17;;;;;;;19.87;9.20;;;;;;;16.01;86.67;100512.84;5113977;22;20262;-71
2021/06/22 04:07:42;;;;;;;13.93;7.27;;;;;;;16.00;86.87;100506.59;5058846;28;20257;-71
2021/06/22 04:10:08;;;;;;;19.63;7.60;;;;;;;16.02;85.66;100506.47;5075478;28;20630;-71
2021/06/22 04:12:33;;;;;;;14.67;7.17;;;;;;;15.81;85.44;100506.34;5058145;28;20185;-72
2021/06/22 04:14:58;;;;;;;17.40;6.50;;;;;;;15.84;85.45;100514.16;5092980;28;20205;-72
2021/06/22 04:17:24;;;;;;;13.30;5.73;;;;;;;15.81;84.48;100512.59;5075100;28;20186;-72
2021/06/22 04:19:49;;;;;;;14.20;5.40;;;;;;;15.73;85.29;100506.97;5074859;28;20174;-72
2021/06/22 04:22:14;;;;;;;9.40;4.87;;;;;;;15.72;85.35;100507.09;5058288;28;20190;-71
2021/06/22 04:24:40;;;;;;;9.67;4.43;;;;;;;15.79;85.08;100508.31;5058123;28;20196;-72
2021/06/22 04:27:05;;;;;;;12.20;5.13;;;;;;;15.93;84.44;100514.28;5058161;28;20174;-71
2021/06/22 04:29:30;;;;;;;10.37;4.57;;;;;;;15.95;83.93;100504.25;5058450;28;20550;-71
2021/06/22 04:31:56;;;;;;;6.97;4.17;;;;;;;15.86;84.82;100507.69;5092906;28;20650;-71
2021/06/22 04:34:22;;;;;;;8.20;4.20;;;;;;;15.72;85.03;100502.56;5078004;28;20264;-71
2021/06/22 04:36:47;;;;;;;9.73;3.90;;;;;;;15.53;84.97;100502.25;5079407;28;20186;-71
2021/06/22 04:39:12;;;;;;;7.70;3.80;;;;;;;15.45;85.06;100504.69;5078531;28;20174;-71
2021/06/22 04:41:38;;;;;;;10.33;4.57;;;;;;;15.37;85.62;100507.97;5078926;28;20669;-71
2021/06/22 04:44:04;;;;;;;8.20;3.73;;;;;;;15.40;85.37;100514.97;5061751;28;20209;-70
2021/06/22 04:46:29;;;;;;;8.67;4.80;;;;;;;15.28;86.09;100530.22;5096203;28;20174;-68
2021/06/22 04:48:54;;;;;;;8.13;4.83;;;;;;;15.33;85.36;100531.56;5096503;28;20187;-68
2021/06/22 04:51:20;;;;;;;9.97;4.67;;;;;;;15.46;85.42;100538.69;5078289;28;20642;-69
2021/06/22 04:53:45;;;;;;;13.43;5.23;;;;;;;15.62;83.47;100544.63;5079966;28;20198;-68
2021/06/22 04:56:10;;;;;;;12.57;4.90;;;;;;;15.83;82.97;100544.75;5079176;28;20566;-67
2021/06/22 04:58:36;;;;;;;9.37;4.23;;;;;;;15.94;81.53;100542.91;5077789;28;20178;-67
2021/06/22 05:01:05;;;;;;;10.47;4.10;;;;;;;16.08;81.23;100551.75;5078129;28;20249;-67
2021/06/22 05:03:34;;;;;;;5.30;3.60;;;;;;;16.19;80.65;100554.41;5077894;28;20217;-67
2021/06/22 05:06:00;;;;;;;11.27;3.83;;;;;;;16.17;79.76;100557.22;5079145;28;20193;-68
2021/06/22 05:08:25;;;;;;;7.20;3.43;;;;;;;16.16;79.18;100565.44;5064240;28;20649;-68
2021/06/22 05:10:51;;;;;;;8.33;3.33;;;;;;;16.13;78.48;100571.06;5062098;28;20181;-69
2021/06/22 05:13:16;;;;;;;8.83;3.37;;;;;;;16.18;78.26;100564.31;5095917;28;20194;-66
2021/06/22 05:15:41;;;;;;;10.87;3.63;;;;;;;16.26;78.04;100559.16;5062337;28;20204;-69
2021/06/22 05:18:07;;;;;;;5.50;2.97;;;;;;;16.17;77.98;100561.75;5096965;28;20183;-68
2021/06/22 05:20:32;;;;;;;14.33;3.10;;;;;;;16.32;78.00;100563.19;5096453;28;20225;-67
2021/06/22 05:22:58;;;;;;;6.70;2.60;;;;;;;16.36;78.26;100566.53;5098446;28;20189;-69
2021/06/22 05:25:23;;;;;;;7.07;3.20;;;;;;;16.41;78.07;100565.16;5078820;28;20596;-68
2021/06/22 05:27:49;;;;;;;5.80;2.33;;;;;;;16.54;78.05;100573.09;5096567;28;20283;-68
2021/06/22 05:30:14;;;;;;;7.33;2.67;;;;;;;16.70;77.28;100584.34;5078173;28;20182;-69
2021/06/22 05:32:40;;;;;;;11.57;3.43;;;;;;;16.56;78.21;100585.47;5078363;28;20248;-71
2021/06/22 05:35:05;;;;;;;6.07;2.50;;;;;;;16.80;77.14;100585.31;5061649;28;20271;-73
2021/06/22 05:37:31;;;;;;;10.67;3.10;;;;;;;17.00;76.85;100572.00;5096134;28;20265;-68
2021/06/22 05:39:56;;;;;;;9.17;2.90;;;;;;;17.16;75.67;100580.53;5060439;28;20651;-71
2021/06/22 05:42:21;;;;;;;5.37;2.90;;;;;;;17.44;73.49;100569.09;5077087;28;20231;-71
2021/06/22 05:44:47;;;;;;;6.67;2.90;;;;;;;17.69;72.28;100570.56;5093395;28;20670;-71
2021/06/22 05:47:12;;;;;;;7.53;2.87;;;;;;;17.62;72.57;100588.25;5077094;28;20174;-72
2021/06/22 05:49:38;;;;;;;8.63;2.80;;;;;;;17.74;71.69;100587.22;5077182;28;20185;-71
2021/06/22 05:52:03;;;;;;;6.33;2.73;;;;;;;17.79;71.41;100586.81;5077150;28;20692;-71
2021/06/22 05:54:29;;;;;;;8.67;3.03;;;;;;;17.62;72.54;100585.56;5076750;28;20305;-71
2021/06/22 05:56:54;;;;;;;8.10;2.93;;;;;;;17.30;73.98;100592.84;5076727;28;20189;-70
2021/06/22 05:59:19;;;;;;;8.80;3.37;;;;;;;17.32;74.28;100598.97;5060368;28;20214;-71
2021/06/22 06:01:45;;;;;;;6.77;2.93;;;;;;;17.46;73.52;100591.41;5076831;28;20268;-71
2021/06/22 06:04:10;;;;;;;5.53;2.93;;;;;;;17.40;73.88;100597.31;5076272;28;20250;-70
2021/06/22 06:06:35;;;;;;;10.63;3.40;;;;;;;17.27;74.11;100598.50;5076685;28;20178;-71
2021/06/22 06:09:00;;;;;;;5.53;2.73;;;;;;;16.89;76.39;100597.19;5076751;28;20534;-70
2021/06/22 06:11:26;;;;;;;5.20;2.40;;;;;;;17.01;75.25;100592.59;5059900;28;20182;-71
2021/06/22 06:13:51;;;;;;;8.10;3.03;;;;;;;17.18;75.43;100586.66;5059578;28;20238;-71
2021/06/22 06:16:16;;;;;;;6.17;2.30;;;;;;;17.11;75.81;100599.81;5076507;28;20180;-71
2021/06/22 06:18:42;;;;;;;5.00;3.10;;;;;;;17.07;76.32;100601.03;5094979;28;20581;-70
2021/06/22 06:21:07;;;;;;;4.60;2.73;;;;;;;17.02;76.65;100607.78;5059398;28;20656;-70
2021/06/22 06:23:39;;;;;;;6.47;2.70;;;;;;;17.01;76.56;100611.47;5059408;28;20194;-70
2021/06/22 06:26:05;;;;;;;7.40;3.17;;;;;;;16.93;76.87;100603.16;5077184;28;20215;-70
2021/06/22 06:28:34;;;;;;;5.53;3.33;;;;;;;17.00;76.47;100607.91;5093398;28;20173;-70
2021/06/22 06:30:59;;;;;;;5.47;3.10;;;;;;;16.55;78.60;100610.69;5060287;28;20174;-71
2021/06/22 06:33:24;;;;;;;8.13;3.43;;;;;;;16.87;76.92;100607.22;5059393;28;20563;-71
2021/06/22 06:35:53;;;;;;;8.83;3.13;;;;;;;16.90;76.75;100612.38;5076292;28;20201;-72
2021/06/22 06:38:18;;;;;;;3.67;2.83;;;;;;;17.09;75.95;100615.22;5077164;28;20177;-72
2021/06/22 06:40:43;;;;;;;3.83;2.70;;;;;;;16.85;76.06;100626.22;5059789;28;20539;-71
2021/06/22 06:43:10;;;;;;;9.37;2.97;;;;;;;17.15;75.68;100632.75;5076362;28;20174;-72
2021/06/22 06:45:35;;;;;;;5.90;2.47;;;;;;;17.29;75.05;100629.75;5094335;28;20216;-72
2021/06/22 06:48:00;;;;;;;7.23;2.93;;;;;;;17.02;75.55;100637.44;5076214;28;20638;-71
2021/06/22 06:50:26;;;;;;;5.27;2.90;;;;;;;16.99;76.16;100630.47;5076004;28;20178;-72
2021/06/22 06:52:51;;;;;;;9.10;2.60;;;;;;;17.05;74.85;100629.94;5059243;28;20273;-71
2021/06/22 06:55:26;;;;;;;6.13;2.33;;;;;;;17.31;74.33;100641.28;5092058;28;20194;-71
2021/06/22 06:58:00;;;;;;;3.40;1.87;;;;;;;17.57;72.51;100640.91;5075978;28;20165;-72
2021/06/22 07:00:28;;;;;;;3.17;1.93;;;;;;;17.67;72.47;100644.56;5092883;28;20649;-70
2021/06/22 07:02:53;;;;;;;4.47;2.30;;;;;;;17.84;71.14;100637.72;5075889;28;20182;-71
2021/06/22 07:05:19;;;;;;;2.73;2.00;;;;;;;17.65;72.16;100641.13;5058872;28;20193;-73
2021/06/22 07:07:44;;;;;;;4.07;2.30;;;;;;;17.70;71.50;100641.59;5075707;28;20673;-72
2021/06/22 07:10:10;;;;;;;3.93;2.20;;;;;;;17.95;71.57;100645.75;5075493;28;20181;-71
2021/06/22 07:12:36;;;;;;;2.57;1.90;;;;;;;18.10;69.87;100644.41;5075355;28;20174;-70
2021/06/22 07:15:01;;;;;;;4.47;2.17;;;;;;;17.65;70.98;100652.75;5093315;28;20281;-71
2021/06/22 07:17:27;;;;;;;3.20;2.00;;;;;;;17.32;72.50;100645.69;5075415;28;20221;-71
2021/06/22 07:19:52;;;;;;;3.73;2.20;;;;;;;17.06;73.39;100647.84;5058580;28;20220;-70
2021/06/22 07:22:17;;;;;;;5.27;2.77;;;;;;;17.52;72.54;100640.47;5058843;28;20174;-70
2021/06/22 07:24:42;;;;;;;5.17;2.43;;;;;;;17.93;70.45;100655.84;5058428;28;20565;-71
2021/06/22 07:27:08;;;;;;;3.57;1.90;;;;;;;18.22;68.75;100659.56;5093465;28;20178;-72
2021/06/22 07:29:33;;;;;;;4.83;1.93;;;;;;;18.31;68.38;100653.34;5075357;28;20224;-72
2021/06/22 07:31:59;;;;;;;5.37;2.17;;;;;;;17.81;69.93;100649.63;5075152;28;20227;-71
2021/06/22 07:34:24;;;;;;;4.93;2.63;;;;;;;17.47;72.53;100657.03;5093143;28;20213;-71
2021/06/22 07:36:49;;;;;;;8.97;3.87;;;;;;;16.74;75.77;100669.38;5058555;28;20205;-70
2021/06/22 07:39:15;;;;;;;7.83;3.93;;;;;;;16.71;76.19;100683.06;5075129;28;20183;-72
2021/06/22 07:41:40;;;;;;;7.83;3.87;;;;;;;16.77;75.50;100684.44;5058485;28;20551;-72
2021/06/22 07:44:05;;;;;;;8.57;4.30;;;;;;;16.42;77.35;100684.53;5058244;28;20198;-70
2021/06/22 07:46:31;;;;;;;9.73;4.40;;;;;;;16.35;77.33;100691.38;5075200;28;20170;-70
2021/06/22 07:48:57;;;;;;;12.53;5.17;;;;;;;16.57;76.04;100688.69;5093064;28;20177;-71
2021/06/22 07:51:22;;;;;;;9.80;4.27;;;;;;;16.90;74.90;100692.38;5058051;28;20179;-71
2021/06/22 07:53:47;;;;;;;9.50;5.33;;;;;;;16.99;74.89;100703.25;5093303;28;20209;-70
2021/06/22 07:56:13;;;;;;;8.80;4.27;;;;;;;17.15;73.62;100701.03;5074479;28;20739;-70
2021/06/22 07:58:38;;;;;;;16.60;4.23;;;;;;;17.30;73.30;100700.75;5075024;28;20216;-71
2021/06/22 08:01:03;;;;;;;7.70;3.63;;;;;;;17.48;71.83;100701.91;5093796;28;20166;-70
2021/06/22 08:03:29;;;;;;;7.97;3.67;;;;;;;18.47;68.46;100701.47;5076343;28;20210;-71
2021/06/22 08:05:55;;;;;;;3.60;2.60;;;;;;;19.23;63.61;100701.91;5060241;28;20170;-71
2021/06/22 08:08:22;;;;;;;3.60;2.10;;;;;;;19.76;62.78;100698.84;5065315;28;20224;-71
2021/06/22 08:10:56;;;;;;;4.40;2.20;;;;;;;20.22;60.11;100688.06;5098107;28;20236;-72
2021/06/22 08:13:24;;;;;;;4.47;2.53;;;;;;;19.76;61.98;100691.59;5079559;28;20209;-72
2021/06/22 08:15:49;;;;;;;4.60;2.40;;;;;;;19.53;62.58;100688.28;5095843;28;20331;-72
2021/06/22 08:18:15;;;;;;;5.37;2.10;;;;;;;19.54;62.63;100684.59;5079076;28;20648;-71
2021/06/22 08:20:41;;;;;;;8.47;4.83;;;;;;;19.74;62.29;100688.16;5061892;28;20288;-73
2021/06/22 08:23:06;;;;;;;6.07;2.33;;;;;;;19.21;62.15;100691.22;5095223;28;20631;-73
2021/06/22 08:25:33;;;;;;;6.63;3.20;;;;;;;19.72;60.47;100686.59;5061655;28;20174;-71
2021/06/22 08:27:58;;;;;;;9.83;3.00;;;;;;;19.95;59.32;100702.38;5078692;28;20546;-71
2021/06/22 08:30:26;;;;;;;5.47;2.47;;;;;;;19.28;61.64;100702.34;5096695;28;20174;-71
2021/06/22 08:32:52;;;;;;;8.77;2.57;;;;;;;19.23;62.17;100705.47;5061648;28;20635;-71
2021/06/22 08:35:18;;;;;;;9.17;2.60;;;;;;;19.35;61.97;100714.34;5078625;28;20194;-70
2021/06/22 08:37:43;;;;;;;8.43;3.00;;;;;;;19.47;60.71;100715.91;5078550;28;20166;-71
2021/06/22 08:40:10;;;;;;;8.13;2.90;;;;;;;19.95;58.58;100713.22;5078364;28;20175;-72
2021/06/22 08:42:36;;;;;;;4.27;2.07;;;;;;;19.83;58.92;100724.34;5078466;28;20257;-71
2021/06/22 08:45:03;;;;;;;4.23;2.13;;;;;;;19.90;58.77;100718.22;5095296;28;20217;-71
2021/06/22 08:47:28;;;;;;;6.70;2.90;;;;;;;20.66;57.25;100720.91;5095110;28;20689;-71
2021/06/22 08:49:55;;;;;;;3.93;2.07;;;;;;;21.26;55.35;100723.22;5061181;28;20205;-71
2021/06/22 08:52:25;;;;;;;6.63;2.53;;;;;;;20.95;55.30;100728.09;5094904;28;20162;-72
2021/06/22 08:54:52;;;;;;;5.53;2.53;;;;;;;21.23;54.40;100724.41;5078208;28;20794;-71
2021/06/22 08:57:17;;;;;;;4.70;1.90;;;;;;;20.57;57.53;100729.94;5078923;28;20634;-72
2021/06/22 08:59:43;;;;;;;7.60;2.00;;;;;;;21.14;54.62;100728.81;5063642;28;20179;-71
2021/06/22 09:02:08;;;;;;;6.17;2.33;;;;;;;20.43;55.93;100728.53;5078132;28;20181;-71
2021/06/22 09:04:34;;;;;;;6.37;2.07;;;;;;;20.63;55.82;100737.50;5077819;28;20764;-70
2021/06/22 09:06:59;;;;;;;5.27;2.20;;;;;;;20.33;56.05;100727.69;5096472;28;20182;-70
2021/06/22 09:09:35;;;;;;;6.67;3.00;;;;;;;21.74;52.51;100736.44;5077694;28;20178;-71
2021/06/22 09:12:11;;;;;;;8.97;2.53;;;;;;;22.20;50.64;100742.63;5078056;28;20170;-71
2021/06/22 09:14:38;;;;;;;6.40;3.03;;;;;;;21.85;50.42;100731.63;5078047;28;20566;-71
2021/06/22 09:17:04;;;;;;;4.70;2.20;;;;;;;21.30;51.94;100743.63;5061206;28;20638;-71
2021/06/22 09:19:30;;;;;;;6.33;2.60;;;;;;;20.76;53.48;100743.41;5076686;28;20174;-71
2021/06/22 09:21:56;;;;;;;5.30;2.20;;;;;;;20.57;54.29;100735.38;5078286;28;20193;-71
2021/06/22 09:24:26;;;;;;;7.37;2.20;;;;;;;20.65;54.28;100731.91;5095340;28;20669;-71
2021/06/22 09:26:51;;;;;;;7.10;2.50;;;;;;;20.70;54.88;100746.72;5077983;28;20170;-72
2021/06/22 09:29:22;;;;;;;8.47;2.93;;;;;;;20.47;54.94;100746.25;5061115;28;20177;-72
2021/06/22 09:31:50;;;;;;;7.43;3.17;;;;;;;20.53;54.98;100742.09;5078001;28;20177;-71
2021/06/22 09:34:18;;;;;;;6.80;2.83;;;;;;;20.42;55.40;100753.94;5077014;28;20198;-71
2021/06/22 09:36:50;;;;;;;8.17;3.00;;;;;;;20.51;55.66;100739.53;5078037;28;20166;-71
2021/06/22 09:39:15;;;;;;;9.80;3.67;;;;;;;21.09;53.61;100742.00;5061177;28;20194;-71
2021/06/22 09:41:42;;;;;;;5.80;2.20;;;;;;;21.52;52.80;100752.19;5060277;28;20180;-70
2021/06/22 09:44:13;;;;;;;7.13;2.33;;;;;;;20.89;53.81;100752.09;5095161;28;20189;-71
2021/06/22 09:46:44;;;;;;;5.00;1.80;;;;;;;21.14;52.90;100755.09;5060352;28;20181;-70
2021/06/22 09:49:15;;;;;;;7.53;2.23;;;;;;;21.64;52.53;100757.41;5060795;28;20609;-71
2021/06/22 09:52:08;;;;;;;9.27;2.50;;;;;;;21.00;53.05;100752.91;5095046;28;20247;-70
2021/06/22 09:54:34;;;;;;;3.77;1.97;;;;;;;21.56;51.31;100769.03;5094277;28;20221;-71
2021/06/22 09:57:12;;;;;;;5.57;2.17;;;;;;;21.31;51.00;100757.06;5095329;28;20170;-71
2021/06/22 09:59:51;;;;;;;5.40;2.10;;;;;;;21.29;52.09;100760.94;5076961;28;20523;-71
2021/06/22 10:02:17;;;;;;;6.57;2.53;;;;;;;21.18;51.64;100773.63;5059974;28;20259;-70
2021/06/22 10:04:50;;;;;;;10.73;2.33;;;;;;;20.60;53.05;100770.31;5078774;28;20208;-73
2021/06/22 10:07:17;;;;;;;6.83;2.60;;;;;;;20.25;54.36;100774.50;5078637;28;20159;-74
2021/06/22 10:09:43;;;;;;;7.90;2.87;;;;;;;19.55;56.85;100781.03;5078617;28;20182;-75
2021/06/22 10:12:15;;;;;;;8.47;2.70;;;;;;;20.04;55.42;100773.78;5062592;28;20231;-75
2021/06/22 10:14:49;;;;;;;7.40;2.80;;;;;;;19.93;55.42;100763.13;5062585;28;20198;-75
2021/06/22 10:17:18;;;;;;;8.00;4.03;;;;;;;20.29;53.81;100765.06;5095722;28;20543;-74
2021/06/22 10:19:45;;;;;;;7.13;1.87;;;;;;;20.48;53.28;100776.94;5079036;28;20167;-74
2021/06/22 10:22:11;;;;;;;5.67;2.33;;;;;;;20.22;53.51;100780.22;5095356;28;20189;-74
2021/06/22 10:24:42;;;;;;;6.77;2.50;;;;;;;20.15;53.64;100789.91;5063171;28;20190;-74
2021/06/22 10:27:08;;;;;;;8.80;2.37;;;;;;;19.65;55.11;100781.06;5079464;28;20614;-75
2021/06/22 10:29:34;;;;;;;8.87;2.60;;;;;;;19.53;56.03;100780.31;5062018;28;20265;-75
2021/06/22 10:32:00;;;;;;;4.37;2.23;;;;;;;19.38;55.65;100770.88;5062671;28;20261;-74
2021/06/22 10:34:25;;;;;;;6.37;2.10;;;;;;;19.51;55.32;100793.13;5077760;28;20233;-74
2021/06/22 10:37:01;;;;;;;6.97;1.93;;;;;;;19.56;55.93;100788.16;5078404;28;20282;-74
2021/06/22 10:39:50;;;;;;;7.30;2.20;;;;;;;19.86;55.59;100797.19;5061199;28;20173;-75
2021/06/22 10:42:16;;;;;;;11.23;3.10;;;;;;;20.09;56.05;100795.06;5061303;28;20181;-74
2021/06/22 10:44:51;;;;;;;7.20;2.60;;;;;;;19.88;57.06;100798.75;5060677;28;20190;-74
2021/06/22 10:47:28;;;;;;;6.77;2.20;;;;;;;19.90;56.50;100806.75;5095901;28;20219;-75
2021/06/22 10:50:22;;;;;;;5.43;2.33;;;;;;;20.01;56.36;100812.00;5060971;28;20175;-76
2021/06/22 10:53:01;;;;;;;8.50;2.47;;;;;;;19.96;55.56;100820.56;5078827;28;20158;-75
2021/06/22 10:55:26;;;;;;;8.10;2.23;;;;;;;20.13;55.44;100813.59;5065032;28;20186;-75
2021/06/22 10:58:01;;;;;;;12.47;2.90;;;;;;;19.85;56.46;100809.88;5101917;28;20508;-76
2021/06/22 11:00:28;;;;;;;12.80;2.70;;;;;;;19.78;56.68;100816.84;5100902;28;20169;-76
2021/06/22 11:03:07;;;;;;;6.13;2.57;;;;;;;20.47;54.51;100816.75;5079419;28;20595;-75
2021/06/22 11:05:35;;;;;;;5.63;2.13;;;;;;;20.07;54.71;100824.13;5095991;28;20165;-75
2021/06/22 11:08:12;;;;;;;9.67;2.40;;;;;;;19.79;55.18;100820.41;5061230;28;20174;-76
2021/06/22 11:10:42;;;;;;;7.77;2.67;;;;;;;20.14;54.82;100825.28;5099305;28;20166;-75
2021/06/22 11:13:08;;;;;;;5.70;2.00;;;;;;;20.38;53.80;100819.41;5062885;28;20229;-75
2021/06/22 11:15:49;;;;;;;6.80;2.60;;;;;;;19.63;55.71;100816.38;5060961;28;20213;-75
2021/06/22 11:18:18;;;;;;;5.77;2.20;;;;;;;19.97;54.97;100818.72;5094625;28;20170;-76
2021/06/22 11:20:45;;;;;;;7.87;2.47;;;;;;;19.94;54.78;100819.00;5077603;28;20170;-75
2021/06/22 11:23:13;;;;;;;7.83;2.10;;;;;;;20.20;54.48;100814.72;5095002;28;20253;-75